ACA325 CYUL-CYYC
Flight info
| Callsign | ACA325 |
|---|---|
| Flight time | 4h 24m |
| Altitude | 34000 |
| Route | KESKA DCT BIPKO DCT IPSAK DCT OMEGI DCT RADEN DCT SPALD DCT LACTO DCT LEATS/N0456F360 DCT ILADA BIRKO6 |
| Aircraft | A321/M-SDE3FGHIRWY/LB1 |
Departure
| Time | 2026-05-04 13:05 |
|---|---|
| Airport | Montreal / Pierre Elliott Trudeau International Airport (CYUL) |
Arrival
| Time | 2026-05-04 17:29 |
|---|---|
| Airport | Calgary International Airport (CYYC) |
| Time | Latitude | Longitude | Altitude | Speed | Heading |
|---|---|---|---|---|---|
| 2026-05-04 12:29 | 45.45925 | -73.74823 | 106 ft | 0 kts | 180° |
| 2026-05-04 12:30 | 45.45921 | -73.74998 | 107 ft | 0 kts | 180° |
| 2026-05-04 12:51 | 45.45932 | -73.74998 | 107 ft | 2 kts | 179° |
| 2026-05-04 12:51 | 45.45947 | -73.74998 | 107 ft | 2 kts | 180° |
| 2026-05-04 12:52 | 45.45963 | -73.74998 | 107 ft | 2 kts | 179° |
| 2026-05-04 12:52 | 45.45972 | -73.74998 | 107 ft | 1 kts | 180° |
| 2026-05-04 12:52 | 45.45985 | -73.75004 | 107 ft | 2 kts | 130° |
| 2026-05-04 12:52 | 45.45990 | -73.75018 | 107 ft | 0 kts | 94° |
| 2026-05-04 12:53 | 45.45990 | -73.75029 | 107 ft | 1 kts | 91° |
| 2026-05-04 12:53 | 45.45990 | -73.75030 | 107 ft | 0 kts | 91° |
| 2026-05-04 12:55 | 45.45990 | -73.75024 | 106 ft | 1 kts | 91° |
| 2026-05-04 12:55 | 45.45990 | -73.74988 | 107 ft | 6 kts | 91° |
| 2026-05-04 12:56 | 45.45988 | -73.74905 | 107 ft | 9 kts | 91° |
| 2026-05-04 12:56 | 45.45969 | -73.74801 | 107 ft | 12 kts | 109° |
| 2026-05-04 12:56 | 45.45950 | -73.74675 | 107 ft | 13 kts | 87° |
| 2026-05-04 12:56 | 45.45974 | -73.74535 | 107 ft | 15 kts | 69° |
| 2026-05-04 12:57 | 45.46014 | -73.74390 | 107 ft | 16 kts | 63° |
| 2026-05-04 12:57 | 45.46089 | -73.74271 | 108 ft | 16 kts | 41° |
| 2026-05-04 12:57 | 45.46132 | -73.74120 | 107 ft | 18 kts | 88° |
| 2026-05-04 12:57 | 45.46193 | -73.73975 | 107 ft | 18 kts | 42° |
| 2026-05-04 12:58 | 45.46288 | -73.73847 | 107 ft | 19 kts | 42° |
| 2026-05-04 12:58 | 45.46389 | -73.73718 | 108 ft | 19 kts | 41° |
| 2026-05-04 12:58 | 45.46492 | -73.73583 | 107 ft | 20 kts | 44° |
| 2026-05-04 12:58 | 45.46596 | -73.73445 | 110 ft | 19 kts | 42° |
| 2026-05-04 12:59 | 45.46697 | -73.73314 | 110 ft | 20 kts | 42° |
| 2026-05-04 12:59 | 45.46801 | -73.73178 | 110 ft | 20 kts | 43° |
| 2026-05-04 12:59 | 45.46907 | -73.73035 | 112 ft | 20 kts | 43° |
| 2026-05-04 12:59 | 45.47010 | -73.72900 | 113 ft | 20 kts | 42° |
| 2026-05-04 13:00 | 45.47113 | -73.72765 | 114 ft | 20 kts | 43° |
| 2026-05-04 13:00 | 45.47209 | -73.72639 | 117 ft | 18 kts | 42° |
| 2026-05-04 13:00 | 45.47299 | -73.72523 | 119 ft | 16 kts | 42° |
| 2026-05-04 13:00 | 45.47378 | -73.72420 | 122 ft | 14 kts | 42° |
| 2026-05-04 13:01 | 45.47451 | -73.72324 | 124 ft | 13 kts | 43° |
| 2026-05-04 13:01 | 45.47516 | -73.72235 | 126 ft | 12 kts | 43° |
| 2026-05-04 13:01 | 45.47577 | -73.72153 | 127 ft | 12 kts | 43° |
| 2026-05-04 13:01 | 45.47644 | -73.72065 | 127 ft | 13 kts | 43° |
| 2026-05-04 13:02 | 45.47718 | -73.71967 | 129 ft | 14 kts | 43° |
| 2026-05-04 13:02 | 45.47789 | -73.71873 | 130 ft | 13 kts | 43° |
| 2026-05-04 13:02 | 45.47790 | -73.71764 | 132 ft | 12 kts | 132° |
| 2026-05-04 13:02 | 45.47763 | -73.71725 | 132 ft | 0 kts | 134° |
| 2026-05-04 13:03 | 45.47760 | -73.71719 | 133 ft | 1 kts | 134° |
| 2026-05-04 13:03 | 45.47745 | -73.71698 | 133 ft | 4 kts | 135° |
| 2026-05-04 13:03 | 45.47718 | -73.71660 | 134 ft | 6 kts | 134° |
| 2026-05-04 13:04 | 45.47675 | -73.71639 | 134 ft | 8 kts | 210° |
| 2026-05-04 13:04 | 45.47667 | -73.71648 | 134 ft | 0 kts | 221° |
| 2026-05-04 13:04 | 45.47633 | -73.71692 | 133 ft | 29 kts | 222° |
| 2026-05-04 13:04 | 45.47303 | -73.72121 | 125 ft | 98 kts | 223° |
| 2026-05-04 13:05 | 45.46645 | -73.72987 | 111 ft | 157 kts | 222° |
| 2026-05-04 13:05 | 45.45738 | -73.74165 | 399 ft | 183 kts | 223° |
| 2026-05-04 13:05 | 45.44841 | -73.75356 | 1187 ft | 178 kts | 225° |
| 2026-05-04 13:05 | 45.43969 | -73.76532 | 2004 ft | 174 kts | 225° |
| 2026-05-04 13:06 | 45.43090 | -73.77603 | 2658 ft | 164 kts | 224° |
| 2026-05-04 13:06 | 45.42210 | -73.78629 | 3103 ft | 164 kts | 226° |
| 2026-05-04 13:06 | 45.41595 | -73.79977 | 3363 ft | 167 kts | 263° |
| 2026-05-04 13:06 | 45.41911 | -73.81610 | 3588 ft | 185 kts | 299° |
| 2026-05-04 13:07 | 45.42804 | -73.83012 | 3845 ft | 199 kts | 307° |
| 2026-05-04 13:07 | 45.43764 | -73.84551 | 4045 ft | 216 kts | 306° |
| 2026-05-04 13:07 | 45.44762 | -73.86213 | 4364 ft | 228 kts | 305° |
| 2026-05-04 13:07 | 45.45803 | -73.87955 | 4896 ft | 232 kts | 305° |
| 2026-05-04 13:08 | 45.46863 | -73.89742 | 5337 ft | 241 kts | 305° |
| 2026-05-04 13:08 | 45.47944 | -73.91573 | 5867 ft | 246 kts | 305° |
| 2026-05-04 13:08 | 45.49049 | -73.93447 | 6531 ft | 246 kts | 305° |
| 2026-05-04 13:08 | 45.50139 | -73.95297 | 7179 ft | 247 kts | 305° |
| 2026-05-04 13:09 | 45.51250 | -73.97186 | 7790 ft | 249 kts | 305° |
| 2026-05-04 13:09 | 45.52351 | -73.99066 | 8380 ft | 251 kts | 305° |
| 2026-05-04 13:09 | 45.53471 | -74.00980 | 8966 ft | 254 kts | 305° |
| 2026-05-04 13:09 | 45.54603 | -74.02910 | 9552 ft | 256 kts | 304° |
| 2026-05-04 13:10 | 45.55743 | -74.04858 | 10128 ft | 257 kts | 305° |
| 2026-05-04 13:10 | 45.56900 | -74.06844 | 10498 ft | 267 kts | 305° |
| 2026-05-04 13:10 | 45.58121 | -74.08946 | 10750 ft | 280 kts | 306° |
| 2026-05-04 13:10 | 45.59385 | -74.11113 | 11006 ft | 293 kts | 306° |
| 2026-05-04 13:11 | 45.60709 | -74.13384 | 11301 ft | 303 kts | 306° |
| 2026-05-04 13:11 | 45.62019 | -74.15770 | 11796 ft | 305 kts | 303° |
| 2026-05-04 13:11 | 45.63256 | -74.18176 | 12372 ft | 306 kts | 303° |
| 2026-05-04 13:11 | 45.64513 | -74.20643 | 12900 ft | 307 kts | 303° |
| 2026-05-04 13:12 | 45.65767 | -74.23105 | 13395 ft | 309 kts | 303° |
| 2026-05-04 13:12 | 45.67026 | -74.25583 | 13896 ft | 310 kts | 303° |
| 2026-05-04 13:12 | 45.68302 | -74.28096 | 14377 ft | 312 kts | 303° |
| 2026-05-04 13:12 | 45.69572 | -74.30598 | 14883 ft | 313 kts | 303° |
| 2026-05-04 13:13 | 45.70845 | -74.33128 | 15350 ft | 314 kts | 301° |
| 2026-05-04 13:13 | 45.71855 | -74.35875 | 15804 ft | 314 kts | 290° |
| 2026-05-04 13:13 | 45.72462 | -74.38822 | 16273 ft | 314 kts | 281° |
| 2026-05-04 13:13 | 45.72747 | -74.41911 | 16716 ft | 316 kts | 277° |
| 2026-05-04 13:14 | 45.72974 | -74.45044 | 17160 ft | 317 kts | 277° |
| 2026-05-04 13:14 | 45.73194 | -74.48173 | 17583 ft | 319 kts | 277° |
| 2026-05-04 13:14 | 45.73415 | -74.51326 | 18003 ft | 320 kts | 277° |
| 2026-05-04 13:14 | 45.73634 | -74.54476 | 18417 ft | 322 kts | 277° |
| 2026-05-04 13:15 | 45.73855 | -74.57691 | 18820 ft | 323 kts | 277° |
| 2026-05-04 13:15 | 45.74072 | -74.60865 | 19208 ft | 324 kts | 278° |
| 2026-05-04 13:15 | 45.74294 | -74.64096 | 19595 ft | 326 kts | 278° |
| 2026-05-04 13:15 | 45.74511 | -74.67305 | 19975 ft | 328 kts | 278° |
| 2026-05-04 13:16 | 45.74733 | -74.70567 | 20354 ft | 330 kts | 277° |
| 2026-05-04 13:16 | 45.74952 | -74.73828 | 20712 ft | 332 kts | 278° |
| 2026-05-04 13:16 | 45.75174 | -74.77141 | 21081 ft | 334 kts | 278° |
| 2026-05-04 13:16 | 45.75394 | -74.80420 | 21468 ft | 335 kts | 279° |
| 2026-05-04 13:17 | 45.75636 | -74.83733 | 21845 ft | 336 kts | 280° |
| 2026-05-04 13:17 | 45.75989 | -74.86998 | 22190 ft | 336 kts | 283° |
| 2026-05-04 13:17 | 45.76463 | -74.90282 | 22498 ft | 338 kts | 285° |
| 2026-05-04 13:17 | 45.76969 | -74.93581 | 22867 ft | 339 kts | 285° |
| 2026-05-04 13:18 | 45.77468 | -74.96857 | 23196 ft | 341 kts | 285° |
| 2026-05-04 13:18 | 45.77976 | -75.00177 | 23499 ft | 343 kts | 285° |
| 2026-05-04 13:18 | 45.78489 | -75.03536 | 23828 ft | 344 kts | 286° |
| 2026-05-04 13:18 | 45.79000 | -75.06873 | 24157 ft | 345 kts | 286° |
| 2026-05-04 13:19 | 45.79510 | -75.10202 | 24449 ft | 347 kts | 286° |
| 2026-05-04 13:19 | 45.80029 | -75.13589 | 24744 ft | 349 kts | 286° |
| 2026-05-04 13:19 | 45.80547 | -75.16980 | 25000 ft | 351 kts | 286° |
| 2026-05-04 13:19 | 45.81065 | -75.20376 | 25249 ft | 353 kts | 286° |
| 2026-05-04 13:20 | 45.81589 | -75.23827 | 25506 ft | 355 kts | 286° |
| 2026-05-04 13:20 | 45.82115 | -75.27303 | 25799 ft | 356 kts | 286° |
| 2026-05-04 13:20 | 45.82638 | -75.30760 | 26049 ft | 358 kts | 286° |
| 2026-05-04 13:20 | 45.83162 | -75.34246 | 26278 ft | 360 kts | 286° |
| 2026-05-04 13:21 | 45.83690 | -75.37771 | 26513 ft | 362 kts | 286° |
| 2026-05-04 13:21 | 45.84215 | -75.41267 | 26749 ft | 364 kts | 287° |
| 2026-05-04 13:21 | 45.84742 | -75.44802 | 27010 ft | 365 kts | 287° |
| 2026-05-04 13:21 | 45.85274 | -75.48371 | 27254 ft | 366 kts | 287° |
| 2026-05-04 13:22 | 45.85800 | -75.51907 | 27490 ft | 367 kts | 287° |
| 2026-05-04 13:22 | 45.86333 | -75.55498 | 27686 ft | 369 kts | 286° |
| 2026-05-04 13:22 | 45.86868 | -75.59116 | 27893 ft | 371 kts | 287° |
| 2026-05-04 13:22 | 45.87398 | -75.62700 | 28104 ft | 372 kts | 287° |
| 2026-05-04 13:23 | 45.87937 | -75.66359 | 28299 ft | 374 kts | 286° |
| 2026-05-04 13:23 | 45.88467 | -75.69963 | 28519 ft | 375 kts | 286° |
| 2026-05-04 13:23 | 45.89003 | -75.73624 | 28728 ft | 376 kts | 286° |
| 2026-05-04 13:23 | 45.89539 | -75.77281 | 28946 ft | 377 kts | 286° |
| 2026-05-04 13:24 | 45.90077 | -75.80991 | 29137 ft | 379 kts | 286° |
| 2026-05-04 13:24 | 45.90615 | -75.84686 | 29344 ft | 380 kts | 286° |
| 2026-05-04 13:24 | 45.91151 | -75.88385 | 29560 ft | 380 kts | 286° |
| 2026-05-04 13:25 | 45.92325 | -75.95727 | 30115 ft | 376 kts | 290° |
| 2026-05-04 13:25 | 45.93159 | -75.99229 | 30374 ft | 373 kts | 295° |
| 2026-05-04 13:25 | 45.94193 | -76.02644 | 30604 ft | 371 kts | 299° |
| 2026-05-04 13:25 | 45.95388 | -76.05855 | 30883 ft | 367 kts | 303° |
| 2026-05-04 13:26 | 45.96772 | -76.08959 | 31161 ft | 365 kts | 307° |
| 2026-05-04 13:26 | 45.98265 | -76.11837 | 31366 ft | 364 kts | 309° |
| 2026-05-04 13:26 | 45.99806 | -76.14701 | 31548 ft | 363 kts | 309° |
| 2026-05-04 13:26 | 46.01355 | -76.17571 | 31678 ft | 364 kts | 309° |
| 2026-05-04 13:27 | 46.02901 | -76.20433 | 31818 ft | 365 kts | 308° |
| 2026-05-04 13:27 | 46.04472 | -76.23339 | 31962 ft | 365 kts | 308° |
| 2026-05-04 13:27 | 46.06027 | -76.26220 | 32063 ft | 367 kts | 309° |
| 2026-05-04 13:27 | 46.07576 | -76.29092 | 32180 ft | 367 kts | 309° |
| 2026-05-04 13:28 | 46.09130 | -76.31978 | 32316 ft | 368 kts | 309° |
| 2026-05-04 13:28 | 46.10710 | -76.34909 | 32440 ft | 369 kts | 308° |
| 2026-05-04 13:28 | 46.12274 | -76.37815 | 32571 ft | 370 kts | 308° |
| 2026-05-04 13:28 | 46.13852 | -76.40743 | 32692 ft | 371 kts | 308° |
| 2026-05-04 13:29 | 46.17010 | -76.46626 | 32891 ft | 373 kts | 308° |
| 2026-05-04 13:29 | 46.18594 | -76.49578 | 32992 ft | 373 kts | 308° |
| 2026-05-04 13:29 | 46.20179 | -76.52537 | 33119 ft | 374 kts | 308° |
| 2026-05-04 13:30 | 46.21761 | -76.55494 | 33233 ft | 375 kts | 308° |
| 2026-05-04 13:30 | 46.23343 | -76.58455 | 33327 ft | 376 kts | 308° |
| 2026-05-04 13:30 | 46.26542 | -76.64451 | 33504 ft | 377 kts | 308° |
| 2026-05-04 13:31 | 46.28145 | -76.67461 | 33615 ft | 378 kts | 307° |
| 2026-05-04 13:31 | 46.29743 | -76.70459 | 33667 ft | 379 kts | 307° |
| 2026-05-04 13:31 | 46.32949 | -76.76489 | 33678 ft | 380 kts | 307° |
| 2026-05-04 13:32 | 46.36151 | -76.82528 | 33717 ft | 379 kts | 307° |
| 2026-05-04 13:32 | 46.39349 | -76.88573 | 33705 ft | 380 kts | 307° |
| 2026-05-04 13:33 | 46.42549 | -76.94637 | 33686 ft | 380 kts | 307° |
| 2026-05-04 13:33 | 46.45739 | -77.00690 | 33687 ft | 380 kts | 307° |
| 2026-05-04 13:34 | 46.48947 | -77.06793 | 33691 ft | 380 kts | 307° |
| 2026-05-04 13:34 | 46.52132 | -77.12860 | 33679 ft | 380 kts | 307° |
| 2026-05-04 13:35 | 46.56914 | -77.22000 | 33671 ft | 381 kts | 307° |
| 2026-05-04 13:36 | 46.60105 | -77.28125 | 33672 ft | 381 kts | 307° |
| 2026-05-04 13:36 | 46.63298 | -77.34250 | 33664 ft | 380 kts | 307° |
| 2026-05-04 13:37 | 46.66459 | -77.40341 | 33671 ft | 380 kts | 307° |
| 2026-05-04 13:37 | 46.69648 | -77.46493 | 33670 ft | 381 kts | 307° |
| 2026-05-04 13:38 | 46.72842 | -77.52664 | 33656 ft | 382 kts | 307° |
| 2026-05-04 13:38 | 46.76013 | -77.58813 | 33670 ft | 382 kts | 307° |
| 2026-05-04 13:39 | 46.79195 | -77.64996 | 33676 ft | 381 kts | 307° |
| 2026-05-04 13:39 | 46.82348 | -77.71133 | 33663 ft | 381 kts | 307° |
| 2026-05-04 13:40 | 46.85512 | -77.77304 | 33677 ft | 381 kts | 307° |
| 2026-05-04 13:40 | 46.88681 | -77.83501 | 33681 ft | 381 kts | 307° |
| 2026-05-04 13:41 | 46.91854 | -77.89719 | 33667 ft | 381 kts | 307° |
| 2026-05-04 13:41 | 46.95004 | -77.95904 | 33654 ft | 381 kts | 307° |
| 2026-05-04 13:42 | 46.99720 | -78.05195 | 33646 ft | 381 kts | 306° |
| 2026-05-04 13:42 | 47.02876 | -78.11426 | 33653 ft | 381 kts | 306° |
| 2026-05-04 13:43 | 47.06028 | -78.17666 | 33646 ft | 382 kts | 307° |
| 2026-05-04 13:43 | 47.09183 | -78.23925 | 33638 ft | 382 kts | 307° |
| 2026-05-04 13:44 | 47.12322 | -78.30170 | 33636 ft | 382 kts | 307° |
| 2026-05-04 13:44 | 47.15471 | -78.36444 | 33639 ft | 382 kts | 306° |
| 2026-05-04 13:45 | 47.18607 | -78.42704 | 33635 ft | 382 kts | 306° |
| 2026-05-04 13:45 | 47.21727 | -78.48955 | 33632 ft | 382 kts | 306° |
| 2026-05-04 13:46 | 47.24877 | -78.55275 | 33634 ft | 382 kts | 307° |
| 2026-05-04 13:46 | 47.28002 | -78.61563 | 33630 ft | 383 kts | 307° |
| 2026-05-04 13:47 | 47.31120 | -78.67844 | 33624 ft | 382 kts | 306° |
| 2026-05-04 13:47 | 47.34252 | -78.74173 | 33625 ft | 382 kts | 306° |
| 2026-05-04 13:48 | 47.37367 | -78.80482 | 33623 ft | 383 kts | 306° |
| 2026-05-04 13:48 | 47.40491 | -78.86822 | 33624 ft | 383 kts | 306° |
| 2026-05-04 13:49 | 47.43597 | -78.93138 | 33617 ft | 383 kts | 306° |
| 2026-05-04 13:49 | 47.46711 | -78.99487 | 33626 ft | 383 kts | 306° |
| 2026-05-04 13:50 | 47.49823 | -79.05849 | 33602 ft | 382 kts | 306° |
| 2026-05-04 13:50 | 47.52934 | -79.12221 | 33605 ft | 383 kts | 306° |
| 2026-05-04 13:51 | 47.56047 | -79.18613 | 33603 ft | 384 kts | 306° |
| 2026-05-04 13:51 | 47.59162 | -79.25023 | 33605 ft | 383 kts | 306° |
| 2026-05-04 13:52 | 47.63814 | -79.34622 | 33605 ft | 384 kts | 305° |
| 2026-05-04 13:53 | 47.66899 | -79.41016 | 33602 ft | 383 kts | 306° |
| 2026-05-04 13:53 | 47.69988 | -79.47426 | 33597 ft | 384 kts | 305° |
| 2026-05-04 13:54 | 47.74631 | -79.57082 | 33595 ft | 384 kts | 305° |
| 2026-05-04 13:55 | 47.79262 | -79.66754 | 33598 ft | 385 kts | 304° |
| 2026-05-04 13:55 | 47.83903 | -79.76489 | 33590 ft | 385 kts | 305° |
| 2026-05-04 13:56 | 47.86979 | -79.82954 | 33586 ft | 385 kts | 304° |
| 2026-05-04 13:57 | 47.91593 | -79.92681 | 33578 ft | 385 kts | 304° |
| 2026-05-04 13:58 | 47.97747 | -80.05711 | 33568 ft | 385 kts | 304° |
| 2026-05-04 13:58 | 48.02327 | -80.15449 | 33561 ft | 384 kts | 304° |
| 2026-05-04 13:59 | 48.05388 | -80.21976 | 33557 ft | 384 kts | 304° |
| 2026-05-04 14:00 | 48.09972 | -80.31779 | 33550 ft | 385 kts | 304° |
| 2026-05-04 14:00 | 48.14547 | -80.41599 | 33549 ft | 385 kts | 304° |
| 2026-05-04 14:01 | 48.17594 | -80.48164 | 33547 ft | 385 kts | 304° |
| 2026-05-04 14:02 | 48.22167 | -80.58042 | 33542 ft | 385 kts | 304° |
| 2026-05-04 14:02 | 48.25201 | -80.64613 | 33532 ft | 385 kts | 304° |
| 2026-05-04 14:03 | 48.28242 | -80.71211 | 33525 ft | 385 kts | 303° |
| 2026-05-04 14:03 | 48.31265 | -80.77794 | 33530 ft | 385 kts | 303° |
| 2026-05-04 14:04 | 48.35781 | -80.87657 | 33512 ft | 383 kts | 303° |
| 2026-05-04 14:04 | 48.38794 | -80.94259 | 33509 ft | 384 kts | 303° |
| 2026-05-04 14:05 | 48.43306 | -81.04163 | 33506 ft | 384 kts | 302° |
| 2026-05-04 14:06 | 48.46308 | -81.10783 | 33508 ft | 384 kts | 303° |
| 2026-05-04 14:06 | 48.49327 | -81.17451 | 33512 ft | 384 kts | 303° |
| 2026-05-04 14:07 | 48.52309 | -81.24052 | 33504 ft | 385 kts | 302° |
| 2026-05-04 14:07 | 48.55320 | -81.30734 | 33499 ft | 385 kts | 302° |
| 2026-05-04 14:08 | 48.58326 | -81.37420 | 33500 ft | 386 kts | 302° |
| 2026-05-04 14:08 | 48.61314 | -81.44087 | 33499 ft | 385 kts | 302° |
| 2026-05-04 14:09 | 48.65807 | -81.54138 | 33493 ft | 386 kts | 302° |
| 2026-05-04 14:10 | 48.70280 | -81.64191 | 33475 ft | 385 kts | 302° |
| 2026-05-04 14:10 | 48.73247 | -81.70878 | 33477 ft | 385 kts | 301° |
| 2026-05-04 14:11 | 48.76232 | -81.77617 | 33466 ft | 384 kts | 301° |
| 2026-05-04 14:11 | 48.80664 | -81.87656 | 33439 ft | 385 kts | 301° |
| 2026-05-04 14:12 | 48.83628 | -81.94392 | 33446 ft | 385 kts | 301° |
| 2026-05-04 14:13 | 48.88070 | -82.04518 | 33445 ft | 384 kts | 301° |
| 2026-05-04 14:13 | 48.91007 | -82.11238 | 33434 ft | 385 kts | 301° |
| 2026-05-04 14:14 | 48.93964 | -82.18017 | 33422 ft | 384 kts | 301° |
| 2026-05-04 14:14 | 48.98369 | -82.28151 | 33410 ft | 385 kts | 300° |
| 2026-05-04 14:15 | 49.04252 | -82.41743 | 33412 ft | 387 kts | 300° |
| 2026-05-04 14:16 | 49.08688 | -82.52043 | 33395 ft | 389 kts | 300° |
| 2026-05-04 14:17 | 49.13103 | -82.62339 | 33391 ft | 389 kts | 299° |
| 2026-05-04 14:18 | 49.17524 | -82.72696 | 33396 ft | 390 kts | 298° |
| 2026-05-04 14:19 | 49.23278 | -82.86713 | 33375 ft | 388 kts | 295° |
| 2026-05-04 14:19 | 49.25584 | -82.94090 | 33365 ft | 387 kts | 289° |
| 2026-05-04 14:20 | 49.27481 | -83.01737 | 33353 ft | 386 kts | 287° |
| 2026-05-04 14:20 | 49.29320 | -83.09473 | 33346 ft | 387 kts | 287° |
| 2026-05-04 14:21 | 49.32049 | -83.21030 | 33342 ft | 387 kts | 287° |
| 2026-05-04 14:21 | 49.33872 | -83.28791 | 33337 ft | 387 kts | 286° |
| 2026-05-04 14:22 | 49.35680 | -83.36534 | 33339 ft | 387 kts | 287° |
| 2026-05-04 14:22 | 49.37477 | -83.44246 | 33335 ft | 388 kts | 286° |
| 2026-05-04 14:23 | 49.40183 | -83.55911 | 33322 ft | 388 kts | 286° |
| 2026-05-04 14:24 | 49.41979 | -83.63696 | 33316 ft | 388 kts | 286° |
| 2026-05-04 14:24 | 49.43781 | -83.71533 | 33308 ft | 388 kts | 285° |
| 2026-05-04 14:25 | 49.45573 | -83.79344 | 33303 ft | 390 kts | 285° |
| 2026-05-04 14:25 | 49.48246 | -83.91065 | 33299 ft | 391 kts | 285° |
| 2026-05-04 14:26 | 49.50040 | -83.98966 | 33278 ft | 391 kts | 284° |
| 2026-05-04 14:26 | 49.51812 | -84.06801 | 33284 ft | 391 kts | 284° |
| 2026-05-04 14:27 | 49.53592 | -84.14701 | 33278 ft | 390 kts | 284° |
| 2026-05-04 14:27 | 49.55354 | -84.22543 | 33257 ft | 391 kts | 284° |
| 2026-05-04 14:28 | 49.57127 | -84.30471 | 33247 ft | 392 kts | 284° |
| 2026-05-04 14:28 | 49.58897 | -84.38409 | 33241 ft | 393 kts | 284° |
| 2026-05-04 14:29 | 49.62419 | -84.54309 | 33223 ft | 394 kts | 284° |
| 2026-05-04 14:30 | 49.64177 | -84.62294 | 33247 ft | 394 kts | 284° |
| 2026-05-04 14:31 | 49.66811 | -84.74303 | 33230 ft | 396 kts | 283° |
| 2026-05-04 14:32 | 49.70301 | -84.90333 | 33232 ft | 398 kts | 283° |
| 2026-05-04 14:32 | 49.72047 | -84.98398 | 33204 ft | 398 kts | 283° |
| 2026-05-04 14:33 | 49.73790 | -85.06477 | 33201 ft | 399 kts | 283° |
| 2026-05-04 14:33 | 49.75536 | -85.14612 | 33205 ft | 401 kts | 283° |
| 2026-05-04 14:34 | 49.77285 | -85.22786 | 33176 ft | 402 kts | 283° |
| 2026-05-04 14:34 | 49.79039 | -85.31020 | 33195 ft | 403 kts | 283° |
| 2026-05-04 14:35 | 49.80780 | -85.39226 | 33177 ft | 404 kts | 283° |
| 2026-05-04 14:35 | 49.82511 | -85.47415 | 33211 ft | 404 kts | 283° |
| 2026-05-04 14:36 | 49.84255 | -85.55690 | 33170 ft | 406 kts | 283° |
| 2026-05-04 14:36 | 49.85998 | -85.64008 | 33189 ft | 407 kts | 283° |
| 2026-05-04 14:37 | 49.87743 | -85.72370 | 33181 ft | 409 kts | 282° |
| 2026-05-04 14:37 | 49.89481 | -85.80735 | 33199 ft | 410 kts | 282° |
| 2026-05-04 14:38 | 49.91218 | -85.89114 | 33175 ft | 411 kts | 283° |
| 2026-05-04 14:38 | 49.92952 | -85.97517 | 33173 ft | 411 kts | 282° |
| 2026-05-04 14:39 | 49.94679 | -86.05939 | 33165 ft | 412 kts | 283° |
| 2026-05-04 14:39 | 49.96410 | -86.14414 | 33163 ft | 413 kts | 283° |
| 2026-05-04 14:40 | 49.99001 | -86.27158 | 33158 ft | 414 kts | 283° |
| 2026-05-04 14:40 | 50.00715 | -86.35634 | 33143 ft | 415 kts | 283° |
| 2026-05-04 14:41 | 50.02433 | -86.44173 | 33139 ft | 416 kts | 284° |
| 2026-05-04 14:42 | 50.05856 | -86.61282 | 33182 ft | 416 kts | 284° |
| 2026-05-04 14:42 | 50.07562 | -86.69865 | 33155 ft | 416 kts | 283° |
| 2026-05-04 14:43 | 50.09266 | -86.78478 | 33154 ft | 417 kts | 283° |
| 2026-05-04 14:43 | 50.10952 | -86.87039 | 33137 ft | 417 kts | 284° |
| 2026-05-04 14:44 | 50.12649 | -86.95685 | 33173 ft | 417 kts | 284° |
| 2026-05-04 14:44 | 50.14334 | -87.04318 | 33150 ft | 418 kts | 284° |
| 2026-05-04 14:45 | 50.16007 | -87.12927 | 33166 ft | 419 kts | 284° |
| 2026-05-04 14:45 | 50.17690 | -87.21623 | 33164 ft | 420 kts | 284° |
| 2026-05-04 14:46 | 50.19360 | -87.30302 | 33158 ft | 420 kts | 284° |
| 2026-05-04 14:46 | 50.21028 | -87.39005 | 33154 ft | 420 kts | 284° |
| 2026-05-04 14:47 | 50.22691 | -87.47720 | 33157 ft | 421 kts | 284° |
| 2026-05-04 14:47 | 50.24352 | -87.56456 | 33158 ft | 421 kts | 284° |
| 2026-05-04 14:48 | 50.26001 | -87.65180 | 33161 ft | 422 kts | 283° |
| 2026-05-04 14:48 | 50.27654 | -87.73969 | 33155 ft | 421 kts | 284° |
| 2026-05-04 14:49 | 50.29287 | -87.82687 | 33156 ft | 421 kts | 284° |
| 2026-05-04 14:49 | 50.30918 | -87.91446 | 33148 ft | 422 kts | 284° |
| 2026-05-04 14:50 | 50.32554 | -88.00262 | 33152 ft | 423 kts | 284° |
| 2026-05-04 14:50 | 50.34186 | -88.09095 | 33156 ft | 422 kts | 284° |
| 2026-05-04 14:51 | 50.35802 | -88.17889 | 33158 ft | 422 kts | 284° |
| 2026-05-04 14:51 | 50.37408 | -88.26664 | 33164 ft | 422 kts | 284° |
| 2026-05-04 14:52 | 50.39012 | -88.35484 | 33168 ft | 423 kts | 284° |
| 2026-05-04 14:52 | 50.40614 | -88.44327 | 33164 ft | 422 kts | 284° |
| 2026-05-04 14:53 | 50.42201 | -88.53134 | 33161 ft | 423 kts | 284° |
| 2026-05-04 14:53 | 50.43784 | -88.61963 | 33156 ft | 423 kts | 284° |
| 2026-05-04 14:54 | 50.45363 | -88.70812 | 33154 ft | 422 kts | 284° |
| 2026-05-04 14:54 | 50.46931 | -88.79636 | 33154 ft | 423 kts | 284° |
| 2026-05-04 14:55 | 50.48506 | -88.88547 | 33157 ft | 423 kts | 284° |
| 2026-05-04 14:55 | 50.50059 | -88.97369 | 33162 ft | 423 kts | 284° |
| 2026-05-04 14:56 | 50.51612 | -89.06245 | 33168 ft | 423 kts | 284° |
| 2026-05-04 14:56 | 50.53153 | -89.15096 | 33161 ft | 423 kts | 284° |
| 2026-05-04 14:57 | 50.54700 | -89.24031 | 33148 ft | 423 kts | 284° |
| 2026-05-04 14:57 | 50.56224 | -89.32873 | 33144 ft | 423 kts | 284° |
| 2026-05-04 14:58 | 50.57753 | -89.41791 | 33149 ft | 423 kts | 284° |
| 2026-05-04 14:58 | 50.59269 | -89.50676 | 33164 ft | 422 kts | 284° |
| 2026-05-04 14:59 | 50.60778 | -89.59560 | 33167 ft | 422 kts | 284° |
| 2026-05-04 15:00 | 50.63036 | -89.72949 | 33160 ft | 422 kts | 283° |
| 2026-05-04 15:00 | 50.64518 | -89.81792 | 33169 ft | 421 kts | 283° |
| 2026-05-04 15:01 | 50.66748 | -89.95194 | 33164 ft | 421 kts | 283° |
| 2026-05-04 15:01 | 50.68216 | -90.04064 | 33168 ft | 421 kts | 283° |
| 2026-05-04 15:02 | 50.69678 | -90.12952 | 33171 ft | 421 kts | 283° |
| 2026-05-04 15:02 | 50.71139 | -90.21871 | 33173 ft | 421 kts | 283° |
| 2026-05-04 15:03 | 50.72589 | -90.30776 | 33189 ft | 421 kts | 283° |
| 2026-05-04 15:03 | 50.74038 | -90.39720 | 33194 ft | 421 kts | 283° |
| 2026-05-04 15:04 | 50.75478 | -90.48663 | 33196 ft | 421 kts | 283° |
| 2026-05-04 15:04 | 50.76898 | -90.57532 | 33198 ft | 421 kts | 283° |
| 2026-05-04 15:05 | 50.78329 | -90.66513 | 33198 ft | 421 kts | 282° |
| 2026-05-04 15:05 | 50.79746 | -90.75453 | 33209 ft | 421 kts | 282° |
| 2026-05-04 15:06 | 50.81148 | -90.84348 | 33208 ft | 420 kts | 282° |
| 2026-05-04 15:07 | 50.83251 | -90.97787 | 33208 ft | 420 kts | 283° |
| 2026-05-04 15:07 | 50.84642 | -91.06727 | 33208 ft | 420 kts | 283° |
| 2026-05-04 15:08 | 50.86026 | -91.15678 | 33197 ft | 420 kts | 283° |
| 2026-05-04 15:08 | 50.87399 | -91.24601 | 33201 ft | 420 kts | 283° |
| 2026-05-04 15:09 | 50.88771 | -91.33571 | 33202 ft | 421 kts | 283° |
| 2026-05-04 15:09 | 50.90135 | -91.42535 | 33217 ft | 421 kts | 282° |
| 2026-05-04 15:10 | 50.92165 | -91.55980 | 33223 ft | 420 kts | 282° |
| 2026-05-04 15:11 | 50.94185 | -91.69482 | 33233 ft | 420 kts | 282° |
| 2026-05-04 15:11 | 50.95519 | -91.78456 | 33227 ft | 420 kts | 282° |
| 2026-05-04 15:12 | 50.96846 | -91.87429 | 33239 ft | 419 kts | 282° |
| 2026-05-04 15:12 | 50.98159 | -91.96365 | 33232 ft | 420 kts | 282° |
| 2026-05-04 15:13 | 50.99472 | -92.05360 | 33246 ft | 420 kts | 282° |
| 2026-05-04 15:13 | 51.00785 | -92.14395 | 33255 ft | 421 kts | 282° |
| 2026-05-04 15:14 | 51.02083 | -92.23391 | 33258 ft | 422 kts | 282° |
| 2026-05-04 15:14 | 51.03386 | -92.32467 | 33263 ft | 422 kts | 282° |
| 2026-05-04 15:15 | 51.04674 | -92.41487 | 33270 ft | 421 kts | 282° |
| 2026-05-04 15:15 | 51.05958 | -92.50539 | 33285 ft | 421 kts | 282° |
| 2026-05-04 15:16 | 51.07872 | -92.64133 | 33292 ft | 421 kts | 282° |
| 2026-05-04 15:17 | 51.09766 | -92.77724 | 33288 ft | 421 kts | 282° |
| 2026-05-04 15:17 | 51.11655 | -92.91389 | 33309 ft | 423 kts | 282° |
| 2026-05-04 15:18 | 51.12898 | -93.00451 | 33304 ft | 423 kts | 282° |
| 2026-05-04 15:19 | 51.14763 | -93.14159 | 33307 ft | 424 kts | 282° |
| 2026-05-04 15:19 | 51.16615 | -93.27908 | 33344 ft | 424 kts | 282° |
| 2026-05-04 15:20 | 51.17836 | -93.37048 | 33345 ft | 423 kts | 282° |
| 2026-05-04 15:20 | 51.19043 | -93.46143 | 33346 ft | 422 kts | 282° |
| 2026-05-04 15:21 | 51.20246 | -93.55275 | 33358 ft | 423 kts | 282° |
| 2026-05-04 15:22 | 51.22037 | -93.69018 | 33357 ft | 423 kts | 280° |
| 2026-05-04 15:22 | 51.23428 | -93.82848 | 33380 ft | 423 kts | 278° |
| 2026-05-04 15:23 | 51.24312 | -93.92110 | 33389 ft | 423 kts | 278° |
| 2026-05-04 15:23 | 51.25185 | -94.01342 | 33392 ft | 424 kts | 278° |
| 2026-05-04 15:24 | 51.26912 | -94.19856 | 33395 ft | 423 kts | 278° |
| 2026-05-04 15:25 | 51.27764 | -94.29121 | 33397 ft | 423 kts | 278° |
| 2026-05-04 15:26 | 51.29031 | -94.43056 | 33424 ft | 423 kts | 279° |
| 2026-05-04 15:26 | 51.30275 | -94.56910 | 33440 ft | 423 kts | 279° |
| 2026-05-04 15:27 | 51.31510 | -94.70854 | 33455 ft | 423 kts | 278° |
| 2026-05-04 15:28 | 51.32724 | -94.84766 | 33461 ft | 424 kts | 278° |
| 2026-05-04 15:29 | 51.33923 | -94.98699 | 33468 ft | 424 kts | 278° |
| 2026-05-04 15:30 | 51.36664 | -95.31318 | 33490 ft | 423 kts | 278° |
| 2026-05-04 15:31 | 51.37803 | -95.45224 | 33506 ft | 424 kts | 278° |
| 2026-05-04 15:32 | 51.39675 | -95.68523 | 33523 ft | 424 kts | 278° |
| 2026-05-04 15:34 | 51.41501 | -95.91843 | 33537 ft | 423 kts | 278° |
| 2026-05-04 15:34 | 51.42571 | -96.05830 | 33557 ft | 424 kts | 278° |
| 2026-05-04 15:35 | 51.43629 | -96.19840 | 33574 ft | 424 kts | 278° |
| 2026-05-04 15:36 | 51.44666 | -96.33813 | 33586 ft | 424 kts | 278° |
| 2026-05-04 15:36 | 51.45351 | -96.43187 | 33595 ft | 424 kts | 278° |
| 2026-05-04 15:37 | 51.46030 | -96.52563 | 33600 ft | 424 kts | 278° |
| 2026-05-04 15:37 | 51.46698 | -96.61925 | 33610 ft | 424 kts | 278° |
| 2026-05-04 15:38 | 51.47357 | -96.71248 | 33616 ft | 424 kts | 278° |
| 2026-05-04 15:38 | 51.48015 | -96.80631 | 33619 ft | 424 kts | 278° |
| 2026-05-04 15:39 | 51.48663 | -96.90009 | 33627 ft | 424 kts | 278° |
| 2026-05-04 15:40 | 51.49614 | -97.04015 | 33639 ft | 425 kts | 278° |
| 2026-05-04 15:40 | 51.50247 | -97.13446 | 33645 ft | 425 kts | 278° |
| 2026-05-04 15:41 | 51.50868 | -97.22806 | 33651 ft | 424 kts | 278° |
| 2026-05-04 15:41 | 51.51481 | -97.32166 | 33655 ft | 424 kts | 278° |
| 2026-05-04 15:42 | 51.52086 | -97.41539 | 33659 ft | 424 kts | 278° |
| 2026-05-04 15:42 | 51.52686 | -97.50946 | 33662 ft | 424 kts | 278° |
| 2026-05-04 15:43 | 51.53272 | -97.60258 | 33667 ft | 423 kts | 278° |
| 2026-05-04 15:43 | 51.53855 | -97.69634 | 33674 ft | 424 kts | 277° |
| 2026-05-04 15:44 | 51.54432 | -97.79039 | 33673 ft | 424 kts | 277° |
| 2026-05-04 15:44 | 51.54997 | -97.88380 | 33675 ft | 424 kts | 278° |
| 2026-05-04 15:45 | 51.55559 | -97.97796 | 33676 ft | 423 kts | 278° |
| 2026-05-04 15:45 | 51.56113 | -98.07186 | 33678 ft | 423 kts | 278° |
| 2026-05-04 15:46 | 51.56658 | -98.16551 | 33679 ft | 423 kts | 278° |
| 2026-05-04 15:46 | 51.57196 | -98.25946 | 33687 ft | 423 kts | 278° |
| 2026-05-04 15:47 | 51.57723 | -98.35272 | 33693 ft | 423 kts | 278° |
| 2026-05-04 15:47 | 51.58244 | -98.44634 | 33699 ft | 423 kts | 278° |
| 2026-05-04 15:48 | 51.58758 | -98.54027 | 33701 ft | 422 kts | 278° |
| 2026-05-04 15:48 | 51.59516 | -98.68121 | 33705 ft | 423 kts | 277° |
| 2026-05-04 15:49 | 51.60012 | -98.77508 | 33712 ft | 424 kts | 277° |
| 2026-05-04 15:49 | 51.60501 | -98.86910 | 33713 ft | 423 kts | 277° |
| 2026-05-04 15:50 | 51.60979 | -98.96253 | 33718 ft | 423 kts | 277° |
| 2026-05-04 15:50 | 51.61453 | -99.05643 | 33728 ft | 423 kts | 277° |
| 2026-05-04 15:51 | 51.61921 | -99.15070 | 33734 ft | 422 kts | 277° |
| 2026-05-04 15:51 | 51.62378 | -99.24435 | 33737 ft | 422 kts | 277° |
| 2026-05-04 15:52 | 51.62829 | -99.33855 | 33743 ft | 422 kts | 277° |
| 2026-05-04 15:52 | 51.63271 | -99.43223 | 33742 ft | 423 kts | 277° |
| 2026-05-04 15:53 | 51.63706 | -99.52602 | 33746 ft | 423 kts | 278° |
| 2026-05-04 15:53 | 51.64136 | -99.62036 | 33748 ft | 423 kts | 278° |
| 2026-05-04 15:54 | 51.64556 | -99.71431 | 33753 ft | 423 kts | 277° |
| 2026-05-04 15:54 | 51.64971 | -99.80860 | 33756 ft | 423 kts | 277° |
| 2026-05-04 15:55 | 51.65375 | -99.90241 | 33764 ft | 423 kts | 277° |
| 2026-05-04 15:55 | 51.65772 | -99.99632 | 33764 ft | 422 kts | 277° |
| 2026-05-04 15:56 | 51.66163 | -100.09055 | 33773 ft | 422 kts | 277° |
| 2026-05-04 15:56 | 51.66546 | -100.18426 | 33769 ft | 423 kts | 277° |
| 2026-05-04 15:57 | 51.66921 | -100.27840 | 33771 ft | 423 kts | 277° |
| 2026-05-04 15:57 | 51.67291 | -100.37270 | 33768 ft | 423 kts | 277° |
| 2026-05-04 15:58 | 51.67650 | -100.46683 | 33770 ft | 423 kts | 277° |
| 2026-05-04 15:58 | 51.68002 | -100.56104 | 33761 ft | 423 kts | 277° |
| 2026-05-04 15:59 | 51.68347 | -100.65510 | 33751 ft | 423 kts | 277° |
| 2026-05-04 15:59 | 51.68685 | -100.74918 | 33731 ft | 423 kts | 276° |
| 2026-05-04 16:00 | 51.69014 | -100.84330 | 33726 ft | 423 kts | 277° |
| 2026-05-04 16:00 | 51.69337 | -100.93788 | 33734 ft | 424 kts | 277° |
| 2026-05-04 16:01 | 51.69652 | -101.03234 | 33737 ft | 424 kts | 277° |
| 2026-05-04 16:01 | 51.69960 | -101.12672 | 33737 ft | 423 kts | 277° |
| 2026-05-04 16:02 | 51.70257 | -101.22102 | 33738 ft | 423 kts | 277° |
| 2026-05-04 16:03 | 51.70687 | -101.36256 | 33744 ft | 423 kts | 277° |
| 2026-05-04 16:03 | 51.70856 | -101.45719 | 33752 ft | 425 kts | 274° |
| 2026-05-04 16:04 | 51.70844 | -101.55181 | 33747 ft | 425 kts | 274° |
| 2026-05-04 16:04 | 51.70800 | -101.69426 | 33762 ft | 425 kts | 274° |
| 2026-05-04 16:05 | 51.70758 | -101.78921 | 33765 ft | 425 kts | 274° |
| 2026-05-04 16:06 | 51.70682 | -101.93139 | 33775 ft | 425 kts | 274° |
| 2026-05-04 16:07 | 51.70554 | -102.12042 | 33808 ft | 425 kts | 274° |
| 2026-05-04 16:08 | 51.70394 | -102.31005 | 33815 ft | 425 kts | 274° |
| 2026-05-04 16:09 | 51.70152 | -102.54715 | 33818 ft | 425 kts | 274° |
| 2026-05-04 16:10 | 51.69924 | -102.73685 | 33828 ft | 425 kts | 273° |
| 2026-05-04 16:11 | 51.69665 | -102.92641 | 33838 ft | 424 kts | 273° |
| 2026-05-04 16:12 | 51.69222 | -103.20988 | 33839 ft | 424 kts | 274° |
| 2026-05-04 16:13 | 51.68889 | -103.39929 | 33846 ft | 425 kts | 273° |
| 2026-05-04 16:14 | 51.68522 | -103.58881 | 33851 ft | 423 kts | 274° |
| 2026-05-04 16:16 | 51.68027 | -103.82415 | 33856 ft | 424 kts | 273° |
| 2026-05-04 16:17 | 51.67481 | -104.06068 | 33866 ft | 424 kts | 273° |
| 2026-05-04 16:18 | 51.67012 | -104.24929 | 33867 ft | 423 kts | 273° |
| 2026-05-04 16:19 | 51.66383 | -104.48478 | 33876 ft | 423 kts | 273° |
| 2026-05-04 16:20 | 51.65706 | -104.72080 | 33883 ft | 423 kts | 272° |
| 2026-05-04 16:22 | 51.64981 | -104.95632 | 33911 ft | 423 kts | 272° |
| 2026-05-04 16:23 | 51.64053 | -105.23864 | 33908 ft | 423 kts | 272° |
| 2026-05-04 16:25 | 51.63054 | -105.52112 | 33912 ft | 422 kts | 272° |
| 2026-05-04 16:26 | 51.61809 | -105.84900 | 33923 ft | 422 kts | 271° |
| 2026-05-04 16:28 | 51.60860 | -106.08401 | 33924 ft | 422 kts | 271° |
| 2026-05-04 16:29 | 51.59458 | -106.41219 | 33934 ft | 421 kts | 272° |
| 2026-05-04 16:31 | 51.58399 | -106.64627 | 33942 ft | 421 kts | 272° |
| 2026-05-04 16:32 | 51.57069 | -106.92692 | 33954 ft | 422 kts | 271° |
| 2026-05-04 16:33 | 51.56142 | -107.11436 | 33965 ft | 422 kts | 271° |
| 2026-05-04 16:34 | 51.55429 | -107.25477 | 33970 ft | 421 kts | 271° |
| 2026-05-04 16:35 | 51.53956 | -107.53459 | 33984 ft | 420 kts | 272° |
| 2026-05-04 16:36 | 51.53198 | -107.67365 | 33979 ft | 419 kts | 271° |
| 2026-05-04 16:37 | 51.52421 | -107.81322 | 33991 ft | 419 kts | 271° |
| 2026-05-04 16:38 | 51.51366 | -107.99833 | 33992 ft | 419 kts | 271° |
| 2026-05-04 16:39 | 51.50001 | -108.22992 | 33987 ft | 418 kts | 272° |
| 2026-05-04 16:40 | 51.48879 | -108.41489 | 33998 ft | 416 kts | 272° |
| 2026-05-04 16:41 | 51.47447 | -108.64425 | 33989 ft | 414 kts | 272° |
| 2026-05-04 16:43 | 51.45971 | -108.87323 | 34012 ft | 414 kts | 272° |
| 2026-05-04 16:43 | 51.45070 | -109.00962 | 34005 ft | 411 kts | 272° |
| 2026-05-04 16:45 | 51.43223 | -109.28189 | 34021 ft | 411 kts | 273° |
| 2026-05-04 16:46 | 51.41639 | -109.50818 | 34019 ft | 409 kts | 273° |
| 2026-05-04 16:47 | 51.40347 | -109.68771 | 34020 ft | 406 kts | 273° |
| 2026-05-04 16:48 | 51.39035 | -109.86692 | 34023 ft | 406 kts | 274° |
| 2026-05-04 16:49 | 51.37701 | -110.04507 | 34025 ft | 405 kts | 274° |
| 2026-05-04 16:50 | 51.36342 | -110.22272 | 34031 ft | 402 kts | 274° |
| 2026-05-04 16:51 | 51.35309 | -110.35513 | 34034 ft | 402 kts | 275° |
| 2026-05-04 16:52 | 51.33908 | -110.53200 | 34015 ft | 402 kts | 275° |
| 2026-05-04 16:53 | 51.32838 | -110.66398 | 34036 ft | 400 kts | 274° |
| 2026-05-04 16:54 | 51.31571 | -110.83885 | 34041 ft | 393 kts | 279° |
| 2026-05-04 16:55 | 51.32036 | -111.00906 | 34038 ft | 379 kts | 288° |
| 2026-05-04 16:55 | 51.32679 | -111.09203 | 34024 ft | 379 kts | 289° |
| 2026-05-04 16:56 | 51.34286 | -111.30001 | 34022 ft | 378 kts | 289° |
| 2026-05-04 16:57 | 51.35240 | -111.42566 | 34034 ft | 380 kts | 289° |
| 2026-05-04 16:58 | 51.36484 | -111.59243 | 34032 ft | 378 kts | 289° |
| 2026-05-04 17:00 | 51.38316 | -111.84346 | 33914 ft | 381 kts | 288° |
| 2026-05-04 17:00 | 51.39200 | -111.96825 | 32907 ft | 373 kts | 289° |
| 2026-05-04 17:01 | 51.39768 | -112.04961 | 31794 ft | 369 kts | 289° |
| 2026-05-04 17:01 | 51.40338 | -112.13067 | 30576 ft | 366 kts | 289° |
| 2026-05-04 17:02 | 51.40893 | -112.21090 | 29344 ft | 363 kts | 288° |
| 2026-05-04 17:02 | 51.41434 | -112.29003 | 28133 ft | 359 kts | 288° |
| 2026-05-04 17:03 | 51.41696 | -112.32937 | 27649 ft | 353 kts | 288° |
| 2026-05-04 17:03 | 51.41953 | -112.36801 | 27249 ft | 346 kts | 288° |
| 2026-05-04 17:03 | 51.42450 | -112.44299 | 26444 ft | 333 kts | 288° |
| 2026-05-04 17:04 | 51.42925 | -112.51511 | 25628 ft | 321 kts | 288° |
| 2026-05-04 17:04 | 51.43381 | -112.58469 | 24838 ft | 309 kts | 288° |
| 2026-05-04 17:05 | 51.43813 | -112.65145 | 24074 ft | 299 kts | 288° |
| 2026-05-04 17:05 | 51.44233 | -112.71653 | 23337 ft | 290 kts | 288° |
| 2026-05-04 17:06 | 51.44637 | -112.77964 | 22612 ft | 281 kts | 287° |
| 2026-05-04 17:06 | 51.44831 | -112.81021 | 22261 ft | 277 kts | 287° |
| 2026-05-04 17:07 | 51.45208 | -112.87036 | 21571 ft | 268 kts | 288° |
| 2026-05-04 17:07 | 51.45332 | -112.89015 | 21321 ft | 266 kts | 287° |
| 2026-05-04 17:07 | 51.45576 | -112.92910 | 20863 ft | 261 kts | 287° |
| 2026-05-04 17:07 | 51.45755 | -112.95769 | 20519 ft | 257 kts | 287° |
| 2026-05-04 17:08 | 51.45928 | -112.98589 | 20187 ft | 253 kts | 287° |
| 2026-05-04 17:08 | 51.46264 | -113.04065 | 19559 ft | 245 kts | 286° |
| 2026-05-04 17:08 | 51.46428 | -113.06758 | 19252 ft | 244 kts | 287° |
| 2026-05-04 17:09 | 51.46594 | -113.09453 | 18919 ft | 243 kts | 286° |
| 2026-05-04 17:09 | 51.46755 | -113.12127 | 18611 ft | 241 kts | 286° |
| 2026-05-04 17:09 | 51.46918 | -113.14822 | 18274 ft | 241 kts | 286° |
| 2026-05-04 17:10 | 51.47238 | -113.20116 | 17629 ft | 239 kts | 285° |
| 2026-05-04 17:10 | 51.46421 | -113.28251 | 16575 ft | 269 kts | 253° |
| 2026-05-04 17:11 | 51.45361 | -113.30762 | 16207 ft | 277 kts | 244° |
| 2026-05-04 17:11 | 51.44143 | -113.33149 | 15876 ft | 276 kts | 242° |
| 2026-05-04 17:11 | 51.41703 | -113.37811 | 15172 ft | 274 kts | 242° |
| 2026-05-04 17:12 | 51.40485 | -113.40144 | 14808 ft | 273 kts | 242° |
| 2026-05-04 17:12 | 51.38070 | -113.44777 | 14104 ft | 269 kts | 241° |
| 2026-05-04 17:13 | 51.34503 | -113.51615 | 13050 ft | 267 kts | 240° |
| 2026-05-04 17:14 | 51.30953 | -113.58408 | 11951 ft | 266 kts | 240° |
| 2026-05-04 17:14 | 51.29769 | -113.60669 | 11573 ft | 266 kts | 240° |
| 2026-05-04 17:14 | 51.27421 | -113.65151 | 10851 ft | 264 kts | 238° |
| 2026-05-04 17:15 | 51.26240 | -113.67403 | 10575 ft | 260 kts | 238° |
| 2026-05-04 17:15 | 51.23940 | -113.71784 | 10301 ft | 258 kts | 238° |
| 2026-05-04 17:16 | 51.21625 | -113.76185 | 10053 ft | 257 kts | 238° |
| 2026-05-04 17:16 | 51.18174 | -113.82732 | 9224 ft | 258 kts | 235° |
| 2026-05-04 17:17 | 51.16757 | -113.84508 | 8863 ft | 269 kts | 208° |
| 2026-05-04 17:17 | 51.11107 | -113.84982 | 8073 ft | 272 kts | 180° |
| 2026-05-04 17:18 | 51.09220 | -113.84916 | 8033 ft | 274 kts | 181° |
| 2026-05-04 17:18 | 51.05427 | -113.84879 | 7927 ft | 272 kts | 182° |
| 2026-05-04 17:19 | 51.01650 | -113.84898 | 7951 ft | 272 kts | 182° |
| 2026-05-04 17:19 | 50.97884 | -113.84921 | 7951 ft | 271 kts | 182° |
| 2026-05-04 17:20 | 50.94100 | -113.84944 | 7915 ft | 272 kts | 185° |
| 2026-05-04 17:20 | 50.91095 | -113.87685 | 7078 ft | 251 kts | 254° |
| 2026-05-04 17:20 | 50.90942 | -113.90228 | 6797 ft | 221 kts | 292° |
| 2026-05-04 17:21 | 50.91227 | -113.91479 | 6685 ft | 211 kts | 299° |
| 2026-05-04 17:23 | 50.92164 | -113.95393 | 6572 ft | 209 kts | 294° |
| 2026-05-04 17:24 | 50.92706 | -113.97492 | 6523 ft | 195 kts | 311° |
| 2026-05-04 17:24 | 50.95746 | -113.99000 | 6451 ft | 145 kts | 357° |
| 2026-05-04 17:25 | 50.96758 | -113.99030 | 6313 ft | 145 kts | 358° |
| 2026-05-04 17:25 | 50.98745 | -113.99026 | 5938 ft | 143 kts | 358° |
| 2026-05-04 17:26 | 51.00739 | -113.99027 | 5563 ft | 142 kts | 359° |
| 2026-05-04 17:26 | 51.03713 | -113.99027 | 4990 ft | 142 kts | 358° |
| 2026-05-04 17:27 | 51.05675 | -113.99027 | 4624 ft | 141 kts | 359° |
| 2026-05-04 17:27 | 51.07616 | -113.99041 | 4242 ft | 140 kts | 359° |
| 2026-05-04 17:28 | 51.09560 | -113.99011 | 3879 ft | 138 kts | 358° |
| 2026-05-04 17:29 | 51.12230 | -113.99040 | 3567 ft | 94 kts | 360° |
| 2026-05-04 17:29 | 51.13114 | -113.99263 | 3578 ft | 17 kts | 253° |
| 2026-05-04 17:30 | 51.12975 | -113.99302 | 3578 ft | 17 kts | 179° |
| 2026-05-04 17:31 | 51.12807 | -113.99304 | 3577 ft | 17 kts | 181° |
| 2026-05-04 17:31 | 51.12702 | -113.99691 | 3575 ft | 15 kts | 271° |
| 2026-05-04 17:32 | 51.12776 | -113.99877 | 3574 ft | 9 kts | 359° |
| 2026-05-04 17:33 | 51.12892 | -114.00001 | 3572 ft | 4 kts | 336° |
| 2026-05-04 17:33 | 51.12918 | -114.00005 | 3573 ft | 3 kts | 0° |
| 2026-05-04 17:34 | 51.12943 | -114.00006 | 3573 ft | 0 kts | 359° |